sensor_id;sensor_type;location;lat;lon;timestamp;temperature;humidity
53876;DHT22;39789;53.216;5.624;2023-05-21T00:02:09;13.60;83.30
53876;DHT22;39789;53.216;5.624;2023-05-21T00:04:37;13.60;83.30
53876;DHT22;39789;53.216;5.624;2023-05-21T00:07:05;13.60;83.10
53876;DHT22;39789;53.216;5.624;2023-05-21T00:09:31;13.60;83.10
53876;DHT22;39789;53.216;5.624;2023-05-21T00:11:57;13.60;82.90
53876;DHT22;39789;53.216;5.624;2023-05-21T00:14:23;13.60;82.90
53876;DHT22;39789;53.216;5.624;2023-05-21T00:16:48;13.60;82.80
53876;DHT22;39789;53.216;5.624;2023-05-21T00:19:14;13.60;82.70
53876;DHT22;39789;53.216;5.624;2023-05-21T00:21:39;13.60;82.70
53876;DHT22;39789;53.216;5.624;2023-05-21T00:24:06;13.60;82.60
53876;DHT22;39789;53.216;5.624;2023-05-21T00:26:31;13.60;82.50
53876;DHT22;39789;53.216;5.624;2023-05-21T00:28:57;13.60;82.40
53876;DHT22;39789;53.216;5.624;2023-05-21T00:31:22;13.60;82.50
53876;DHT22;39789;53.216;5.624;2023-05-21T00:33:48;13.60;82.40
53876;DHT22;39789;53.216;5.624;2023-05-21T00:36:14;13.60;82.40
53876;DHT22;39789;53.216;5.624;2023-05-21T00:38:42;13.60;82.40
53876;DHT22;39789;53.216;5.624;2023-05-21T00:41:11;13.60;82.40
53876;DHT22;39789;53.216;5.624;2023-05-21T00:43:37;13.60;82.50
53876;DHT22;39789;53.216;5.624;2023-05-21T00:46:07;13.70;82.50
53876;DHT22;39789;53.216;5.624;2023-05-21T00:48:36;13.60;82.40
53876;DHT22;39789;53.216;5.624;2023-05-21T00:51:02;13.60;82.20
53876;DHT22;39789;53.216;5.624;2023-05-21T00:53:29;13.60;82.20
53876;DHT22;39789;53.216;5.624;2023-05-21T00:55:54;13.60;82.30
53876;DHT22;39789;53.216;5.624;2023-05-21T00:58:20;13.60;82.40
53876;DHT22;39789;53.216;5.624;2023-05-21T01:00:46;13.60;82.30
53876;DHT22;39789;53.216;5.624;2023-05-21T01:03:12;13.60;82.20
53876;DHT22;39789;53.216;5.624;2023-05-21T01:05:38;13.60;82.20
53876;DHT22;39789;53.216;5.624;2023-05-21T01:08:04;13.60;82.20
53876;DHT22;39789;53.216;5.624;2023-05-21T01:10:32;13.50;82.80
53876;DHT22;39789;53.216;5.624;2023-05-21T01:12:58;13.60;82.20
53876;DHT22;39789;53.216;5.624;2023-05-21T01:15:24;13.50;82.10
53876;DHT22;39789;53.216;5.624;2023-05-21T01:17:50;13.60;82.10
53876;DHT22;39789;53.216;5.624;2023-05-21T01:20:18;13.60;82.10
53876;DHT22;39789;53.216;5.624;2023-05-21T01:22:54;13.60;82.00
53876;DHT22;39789;53.216;5.624;2023-05-21T01:25:21;13.50;82.00
53876;DHT22;39789;53.216;5.624;2023-05-21T01:27:48;13.50;82.00
53876;DHT22;39789;53.216;5.624;2023-05-21T01:30:14;13.50;82.00
53876;DHT22;39789;53.216;5.624;2023-05-21T01:32:46;13.60;82.10
53876;DHT22;39789;53.216;5.624;2023-05-21T01:35:25;13.60;82.20
53876;DHT22;39789;53.216;5.624;2023-05-21T01:38:24;13.50;82.30
53876;DHT22;39789;53.216;5.624;2023-05-21T01:40:54;13.50;82.50
53876;DHT22;39789;53.216;5.624;2023-05-21T01:43:23;13.50;82.50
53876;DHT22;39789;53.216;5.624;2023-05-21T01:45:52;13.50;82.40
53876;DHT22;39789;53.216;5.624;2023-05-21T01:48:18;13.50;82.70
53876;DHT22;39789;53.216;5.624;2023-05-21T01:50:44;13.50;82.70
53876;DHT22;39789;53.216;5.624;2023-05-21T01:53:10;13.50;82.90
53876;DHT22;39789;53.216;5.624;2023-05-21T01:55:36;13.50;83.10
53876;DHT22;39789;53.216;5.624;2023-05-21T01:58:06;13.50;83.10
53876;DHT22;39789;53.216;5.624;2023-05-21T02:00:32;13.50;83.40
53876;DHT22;39789;53.216;5.624;2023-05-21T02:02:59;13.50;83.50
53876;DHT22;39789;53.216;5.624;2023-05-21T02:05:24;13.50;83.70
53876;DHT22;39789;53.216;5.624;2023-05-21T02:07:50;13.50;83.80
53876;DHT22;39789;53.216;5.624;2023-05-21T02:10:17;13.50;83.90
53876;DHT22;39789;53.216;5.624;2023-05-21T02:12:43;13.50;84.10
53876;DHT22;39789;53.216;5.624;2023-05-21T02:15:09;13.50;84.30
53876;DHT22;39789;53.216;5.624;2023-05-21T02:17:35;13.50;85.00
53876;DHT22;39789;53.216;5.624;2023-05-21T02:20:03;13.50;84.50
53876;DHT22;39789;53.216;5.624;2023-05-21T02:22:43;13.50;84.80
53876;DHT22;39789;53.216;5.624;2023-05-21T02:25:11;13.50;85.20
53876;DHT22;39789;53.216;5.624;2023-05-21T02:27:38;13.50;85.20
53876;DHT22;39789;53.216;5.624;2023-05-21T02:30:06;13.50;85.60
53876;DHT22;39789;53.216;5.624;2023-05-21T02:32:33;13.50;85.70
53876;DHT22;39789;53.216;5.624;2023-05-21T02:35:00;13.50;85.60
53876;DHT22;39789;53.216;5.624;2023-05-21T02:37:26;13.50;85.80
53876;DHT22;39789;53.216;5.624;2023-05-21T02:39:53;13.50;86.00
53876;DHT22;39789;53.216;5.624;2023-05-21T02:42:20;13.50;86.00
53876;DHT22;39789;53.216;5.624;2023-05-21T02:44:45;13.50;86.30
53876;DHT22;39789;53.216;5.624;2023-05-21T02:47:11;13.50;86.30
53876;DHT22;39789;53.216;5.624;2023-05-21T02:49:37;13.50;86.30
53876;DHT22;39789;53.216;5.624;2023-05-21T02:52:03;13.50;86.40
53876;DHT22;39789;53.216;5.624;2023-05-21T02:54:28;13.40;86.50
53876;DHT22;39789;53.216;5.624;2023-05-21T02:56:54;13.50;86.50
53876;DHT22;39789;53.216;5.624;2023-05-21T02:59:20;13.50;86.60
53876;DHT22;39789;53.216;5.624;2023-05-21T03:01:45;13.40;86.60
53876;DHT22;39789;53.216;5.624;2023-05-21T03:04:11;13.40;86.60
53876;DHT22;39789;53.216;5.624;2023-05-21T03:06:36;13.40;86.60
53876;DHT22;39789;53.216;5.624;2023-05-21T03:09:02;13.40;86.90
53876;DHT22;39789;53.216;5.624;2023-05-21T03:11:30;13.30;86.80
53876;DHT22;39789;53.216;5.624;2023-05-21T03:13:55;13.30;86.90
53876;DHT22;39789;53.216;5.624;2023-05-21T03:16:21;13.30;86.90
53876;DHT22;39789;53.216;5.624;2023-05-21T03:18:46;13.30;87.00
53876;DHT22;39789;53.216;5.624;2023-05-21T03:21:12;13.30;87.00
53876;DHT22;39789;53.216;5.624;2023-05-21T03:23:40;13.20;87.00
53876;DHT22;39789;53.216;5.624;2023-05-21T03:26:06;13.30;87.10
53876;DHT22;39789;53.216;5.624;2023-05-21T03:28:32;13.20;87.00
53876;DHT22;39789;53.216;5.624;2023-05-21T03:30:58;13.20;87.00
53876;DHT22;39789;53.216;5.624;2023-05-21T03:33:24;13.20;87.10
53876;DHT22;39789;53.216;5.624;2023-05-21T03:35:49;12.70;86.80
53876;DHT22;39789;53.216;5.624;2023-05-21T03:38:15;13.20;87.20
53876;DHT22;39789;53.216;5.624;2023-05-21T03:40:41;13.10;87.10
53876;DHT22;39789;53.216;5.624;2023-05-21T03:43:07;12.50;86.70
53876;DHT22;39789;53.216;5.624;2023-05-21T03:45:32;13.10;87.00
53876;DHT22;39789;53.216;5.624;2023-05-21T03:47:58;13.10;86.80
53876;DHT22;39789;53.216;5.624;2023-05-21T03:50:23;13.10;86.80
53876;DHT22;39789;53.216;5.624;2023-05-21T03:52:49;13.10;86.80
53876;DHT22;39789;53.216;5.624;2023-05-21T03:55:14;13.10;86.80
53876;DHT22;39789;53.216;5.624;2023-05-21T03:57:40;13.10;86.80
53876;DHT22;39789;53.216;5.624;2023-05-21T04:00:06;13.10;86.80
53876;DHT22;39789;53.216;5.624;2023-05-21T04:02:33;13.10;86.80
53876;DHT22;39789;53.216;5.624;2023-05-21T04:04:59;13.10;86.70
53876;DHT22;39789;53.216;5.624;2023-05-21T04:07:25;13.00;86.70
53876;DHT22;39789;53.216;5.624;2023-05-21T04:09:51;13.00;86.70
53876;DHT22;39789;53.216;5.624;2023-05-21T04:12:17;12.90;86.90
53876;DHT22;39789;53.216;5.624;2023-05-21T04:14:44;12.80;86.80
53876;DHT22;39789;53.216;5.624;2023-05-21T04:17:11;12.80;86.90
53876;DHT22;39789;53.216;5.624;2023-05-21T04:19:39;12.80;87.10
53876;DHT22;39789;53.216;5.624;2023-05-21T04:22:06;12.70;87.20
53876;DHT22;39789;53.216;5.624;2023-05-21T04:24:31;12.70;87.30
53876;DHT22;39789;53.216;5.624;2023-05-21T04:26:57;12.70;87.40
53876;DHT22;39789;53.216;5.624;2023-05-21T04:29:26;12.80;87.50
53876;DHT22;39789;53.216;5.624;2023-05-21T04:31:53;12.80;87.60
53876;DHT22;39789;53.216;5.624;2023-05-21T04:34:18;12.80;87.50
53876;DHT22;39789;53.216;5.624;2023-05-21T04:36:45;12.90;87.40
53876;DHT22;39789;53.216;5.624;2023-05-21T04:39:11;12.80;87.60
53876;DHT22;39789;53.216;5.624;2023-05-21T04:41:40;12.90;87.20
53876;DHT22;39789;53.216;5.624;2023-05-21T04:44:09;12.90;87.10
53876;DHT22;39789;53.216;5.624;2023-05-21T04:46:34;12.90;86.90
53876;DHT22;39789;53.216;5.624;2023-05-21T04:49:03;13.00;86.90
53876;DHT22;39789;53.216;5.624;2023-05-21T04:51:29;13.00;86.70
53876;DHT22;39789;53.216;5.624;2023-05-21T04:53:55;13.00;86.60
53876;DHT22;39789;53.216;5.624;2023-05-21T04:56:25;13.00;86.40
53876;DHT22;39789;53.216;5.624;2023-05-21T04:58:54;13.00;86.30
53876;DHT22;39789;53.216;5.624;2023-05-21T05:01:20;13.10;86.30
53876;DHT22;39789;53.216;5.624;2023-05-21T05:03:50;13.10;86.30
53876;DHT22;39789;53.216;5.624;2023-05-21T05:06:16;13.10;86.20
53876;DHT22;39789;53.216;5.624;2023-05-21T05:08:42;13.10;86.20
53876;DHT22;39789;53.216;5.624;2023-05-21T05:11:08;13.10;86.10
53876;DHT22;39789;53.216;5.624;2023-05-21T05:13:34;13.10;86.00
53876;DHT22;39789;53.216;5.624;2023-05-21T05:16:02;13.10;85.90
53876;DHT22;39789;53.216;5.624;2023-05-21T05:18:28;13.10;85.90
53876;DHT22;39789;53.216;5.624;2023-05-21T05:20:53;13.10;85.90
53876;DHT22;39789;53.216;5.624;2023-05-21T05:23:19;13.10;85.90
53876;DHT22;39789;53.216;5.624;2023-05-21T05:25:45;13.10;85.90
53876;DHT22;39789;53.216;5.624;2023-05-21T05:28:10;13.10;85.70
53876;DHT22;39789;53.216;5.624;2023-05-21T05:30:36;13.00;85.50
53876;DHT22;39789;53.216;5.624;2023-05-21T05:33:01;13.00;85.60
53876;DHT22;39789;53.216;5.624;2023-05-21T05:35:27;13.10;85.70
53876;DHT22;39789;53.216;5.624;2023-05-21T05:37:53;13.10;85.50
53876;DHT22;39789;53.216;5.624;2023-05-21T05:40:18;13.10;85.20
53876;DHT22;39789;53.216;5.624;2023-05-21T05:42:44;13.10;85.40
53876;DHT22;39789;53.216;5.624;2023-05-21T05:45:10;13.20;85.50
53876;DHT22;39789;53.216;5.624;2023-05-21T05:47:35;13.20;85.40
53876;DHT22;39789;53.216;5.624;2023-05-21T05:50:01;13.30;85.90
53876;DHT22;39789;53.216;5.624;2023-05-21T05:52:26;13.30;85.00
53876;DHT22;39789;53.216;5.624;2023-05-21T05:54:52;13.40;85.00
53876;DHT22;39789;53.216;5.624;2023-05-21T05:57:18;13.50;84.90
53876;DHT22;39789;53.216;5.624;2023-05-21T05:59:43;13.50;84.90
53876;DHT22;39789;53.216;5.624;2023-05-21T06:02:09;13.50;84.90
53876;DHT22;39789;53.216;5.624;2023-05-21T06:04:34;13.50;84.80
53876;DHT22;39789;53.216;5.624;2023-05-21T06:07:00;13.60;84.80
53876;DHT22;39789;53.216;5.624;2023-05-21T06:09:25;13.60;85.40
53876;DHT22;39789;53.216;5.624;2023-05-21T06:11:51;13.60;84.40
53876;DHT22;39789;53.216;5.624;2023-05-21T06:14:17;13.70;84.30
53876;DHT22;39789;53.216;5.624;2023-05-21T06:16:42;13.70;84.30
53876;DHT22;39789;53.216;5.624;2023-05-21T06:19:08;13.70;84.30
53876;DHT22;39789;53.216;5.624;2023-05-21T06:21:33;13.70;84.40
53876;DHT22;39789;53.216;5.624;2023-05-21T06:23:59;13.80;84.50
53876;DHT22;39789;53.216;5.624;2023-05-21T06:26:24;13.80;84.20
53876;DHT22;39789;53.216;5.624;2023-05-21T06:28:50;13.80;84.10
53876;DHT22;39789;53.216;5.624;2023-05-21T06:31:16;13.80;84.00
53876;DHT22;39789;53.216;5.624;2023-05-21T06:33:42;13.90;84.10
53876;DHT22;39789;53.216;5.624;2023-05-21T06:36:07;13.90;84.00
53876;DHT22;39789;53.216;5.624;2023-05-21T06:38:33;13.90;83.60
53876;DHT22;39789;53.216;5.624;2023-05-21T06:40:59;13.90;83.80
53876;DHT22;39789;53.216;5.624;2023-05-21T06:43:24;14.40;84.00
53876;DHT22;39789;53.216;5.624;2023-05-21T06:45:50;14.00;83.50
53876;DHT22;39789;53.216;5.624;2023-05-21T06:48:16;14.00;83.30
53876;DHT22;39789;53.216;5.624;2023-05-21T06:50:42;14.00;83.20
53876;DHT22;39789;53.216;5.624;2023-05-21T06:53:09;14.00;83.00
53876;DHT22;39789;53.216;5.624;2023-05-21T06:55:34;14.10;83.30
53876;DHT22;39789;53.216;5.624;2023-05-21T06:58:00;14.10;83.90
53876;DHT22;39789;53.216;5.624;2023-05-21T07:00:26;14.10;83.60
53876;DHT22;39789;53.216;5.624;2023-05-21T07:02:51;14.30;82.60
53876;DHT22;39789;53.216;5.624;2023-05-21T07:05:17;14.20;82.30
53876;DHT22;39789;53.216;5.624;2023-05-21T07:07:43;14.20;82.10
53876;DHT22;39789;53.216;5.624;2023-05-21T07:10:08;14.30;82.20
53876;DHT22;39789;53.216;5.624;2023-05-21T07:12:34;14.30;82.10
53876;DHT22;39789;53.216;5.624;2023-05-21T07:15:00;14.40;82.00
53876;DHT22;39789;53.216;5.624;2023-05-21T07:17:26;14.40;81.60
53876;DHT22;39789;53.216;5.624;2023-05-21T07:19:51;14.50;81.10
53876;DHT22;39789;53.216;5.624;2023-05-21T07:22:17;14.60;81.20
53876;DHT22;39789;53.216;5.624;2023-05-21T07:24:43;14.70;81.30
53876;DHT22;39789;53.216;5.624;2023-05-21T07:27:09;14.80;81.00
53876;DHT22;39789;53.216;5.624;2023-05-21T07:29:34;14.90;80.50
53876;DHT22;39789;53.216;5.624;2023-05-21T07:32:00;15.00;80.10
53876;DHT22;39789;53.216;5.624;2023-05-21T07:34:26;15.10;79.50
53876;DHT22;39789;53.216;5.624;2023-05-21T07:36:51;15.20;79.10
53876;DHT22;39789;53.216;5.624;2023-05-21T07:39:17;15.30;78.20
53876;DHT22;39789;53.216;5.624;2023-05-21T07:41:43;15.40;77.00
53876;DHT22;39789;53.216;5.624;2023-05-21T07:44:08;15.80;77.20
53876;DHT22;39789;53.216;5.624;2023-05-21T07:46:34;16.20;76.30
53876;DHT22;39789;53.216;5.624;2023-05-21T07:49:00;16.50;74.20
53876;DHT22;39789;53.216;5.624;2023-05-21T07:51:25;16.60;73.50
53876;DHT22;39789;53.216;5.624;2023-05-21T07:53:51;16.70;73.60
53876;DHT22;39789;53.216;5.624;2023-05-21T07:56:17;16.70;73.40
53876;DHT22;39789;53.216;5.624;2023-05-21T07:58:42;16.70;73.30
53876;DHT22;39789;53.216;5.624;2023-05-21T08:01:10;16.90;73.60
53876;DHT22;39789;53.216;5.624;2023-05-21T08:03:36;17.00;72.00
53876;DHT22;39789;53.216;5.624;2023-05-21T08:06:02;17.00;70.80
53876;DHT22;39789;53.216;5.624;2023-05-21T08:08:28;17.00;71.00
53876;DHT22;39789;53.216;5.624;2023-05-21T08:10:53;17.30;70.50
53876;DHT22;39789;53.216;5.624;2023-05-21T08:13:19;17.30;69.80
53876;DHT22;39789;53.216;5.624;2023-05-21T08:15:45;17.60;69.40
53876;DHT22;39789;53.216;5.624;2023-05-21T08:18:11;18.10;68.60
53876;DHT22;39789;53.216;5.624;2023-05-21T08:20:36;18.30;67.80
53876;DHT22;39789;53.216;5.624;2023-05-21T08:23:02;18.20;66.80
53876;DHT22;39789;53.216;5.624;2023-05-21T08:25:28;18.10;66.50
53876;DHT22;39789;53.216;5.624;2023-05-21T08:27:54;18.20;66.70
53876;DHT22;39789;53.216;5.624;2023-05-21T08:30:20;18.30;66.50
53876;DHT22;39789;53.216;5.624;2023-05-21T08:32:46;18.20;66.30
53876;DHT22;39789;53.216;5.624;2023-05-21T08:35:12;17.80;66.50
53876;DHT22;39789;53.216;5.624;2023-05-21T08:37:38;17.50;67.20
53876;DHT22;39789;53.216;5.624;2023-05-21T08:40:04;17.30;67.60
53876;DHT22;39789;53.216;5.624;2023-05-21T08:42:45;17.40;68.50
53876;DHT22;39789;53.216;5.624;2023-05-21T08:45:12;17.50;68.70
53876;DHT22;39789;53.216;5.624;2023-05-21T08:47:41;17.30;68.60
53876;DHT22;39789;53.216;5.624;2023-05-21T08:50:10;17.30;68.30
53876;DHT22;39789;53.216;5.624;2023-05-21T08:52:36;17.10;68.60
53876;DHT22;39789;53.216;5.624;2023-05-21T08:55:06;16.90;68.70
53876;DHT22;39789;53.216;5.624;2023-05-21T08:57:31;16.70;69.50
53876;DHT22;39789;53.216;5.624;2023-05-21T08:59:58;16.60;70.30
53876;DHT22;39789;53.216;5.624;2023-05-21T09:02:24;16.50;70.50
53876;DHT22;39789;53.216;5.624;2023-05-21T09:04:53;16.40;71.20
53876;DHT22;39789;53.216;5.624;2023-05-21T09:07:24;16.30;71.20
53876;DHT22;39789;53.216;5.624;2023-05-21T09:09:56;16.20;71.20
53876;DHT22;39789;53.216;5.624;2023-05-21T09:12:23;16.00;71.40
53876;DHT22;39789;53.216;5.624;2023-05-21T09:14:50;16.00;72.20
53876;DHT22;39789;53.216;5.624;2023-05-21T09:17:16;16.00;72.40
53876;DHT22;39789;53.216;5.624;2023-05-21T09:22:47;16.10;72.40
53876;DHT22;39789;53.216;5.624;2023-05-21T09:25:27;16.00;72.30
53876;DHT22;39789;53.216;5.624;2023-05-21T09:27:57;16.00;72.00
53876;DHT22;39789;53.216;5.624;2023-05-21T09:30:23;16.00;72.40
53876;DHT22;39789;53.216;5.624;2023-05-21T09:32:54;16.10;72.10
53876;DHT22;39789;53.216;5.624;2023-05-21T09:35:20;16.10;72.10
53876;DHT22;39789;53.216;5.624;2023-05-21T09:37:47;16.20;72.10
53876;DHT22;39789;53.216;5.624;2023-05-21T09:40:15;16.10;71.90
53876;DHT22;39789;53.216;5.624;2023-05-21T09:42:44;16.10;72.20
53876;DHT22;39789;53.216;5.624;2023-05-21T09:45:10;16.10;72.00
53876;DHT22;39789;53.216;5.624;2023-05-21T09:47:46;16.10;72.10
53876;DHT22;39789;53.216;5.624;2023-05-21T09:50:17;16.20;72.10
53876;DHT22;39789;53.216;5.624;2023-05-21T09:52:43;16.20;71.50
53876;DHT22;39789;53.216;5.624;2023-05-21T09:55:13;16.20;71.00
53876;DHT22;39789;53.216;5.624;2023-05-21T09:57:42;16.10;71.30
53876;DHT22;39789;53.216;5.624;2023-05-21T10:02:44;16.40;71.30
53876;DHT22;39789;53.216;5.624;2023-05-21T10:05:11;16.60;71.10
53876;DHT22;39789;53.216;5.624;2023-05-21T10:07:41;16.70;70.70
53876;DHT22;39789;53.216;5.624;2023-05-21T10:10:11;16.80;70.20
53876;DHT22;39789;53.216;5.624;2023-05-21T10:12:40;17.00;69.40
53876;DHT22;39789;53.216;5.624;2023-05-21T10:15:08;17.00;68.80
53876;DHT22;39789;53.216;5.624;2023-05-21T10:17:37;17.00;69.00
53876;DHT22;39789;53.216;5.624;2023-05-21T10:20:05;17.40;68.70
53876;DHT22;39789;53.216;5.624;2023-05-21T10:22:32;17.00;68.50
53876;DHT22;39789;53.216;5.624;2023-05-21T10:24:59;17.00;68.90
53876;DHT22;39789;53.216;5.624;2023-05-21T10:27:28;17.10;69.10
53876;DHT22;39789;53.216;5.624;2023-05-21T10:29:56;17.20;69.00
53876;DHT22;39789;53.216;5.624;2023-05-21T10:32:25;17.20;68.60
53876;DHT22;39789;53.216;5.624;2023-05-21T10:34:52;17.10;67.90
53876;DHT22;39789;53.216;5.624;2023-05-21T10:37:20;17.20;68.30
53876;DHT22;39789;53.216;5.624;2023-05-21T10:39:47;17.20;67.10
53876;DHT22;39789;53.216;5.624;2023-05-21T10:44:59;17.20;67.50
53876;DHT22;39789;53.216;5.624;2023-05-21T10:50:50;17.00;66.00
53876;DHT22;39789;53.216;5.624;2023-05-21T10:53:43;16.90;66.90
53876;DHT22;39789;53.216;5.624;2023-05-21T10:56:27;17.10;66.10
53876;DHT22;39789;53.216;5.624;2023-05-21T10:59:18;16.70;67.20
53876;DHT22;39789;53.216;5.624;2023-05-21T11:01:50;16.80;67.30
53876;DHT22;39789;53.216;5.624;2023-05-21T11:04:27;16.70;67.20
53876;DHT22;39789;53.216;5.624;2023-05-21T11:06:52;16.60;67.60
53876;DHT22;39789;53.216;5.624;2023-05-21T11:09:18;16.70;67.80
53876;DHT22;39789;53.216;5.624;2023-05-21T11:11:51;16.60;66.80
53876;DHT22;39789;53.216;5.624;2023-05-21T11:14:31;16.60;66.90
53876;DHT22;39789;53.216;5.624;2023-05-21T11:17:00;16.50;68.80
53876;DHT22;39789;53.216;5.624;2023-05-21T11:19:39;16.70;68.30
53876;DHT22;39789;53.216;5.624;2023-05-21T11:24:44;16.60;67.40
53876;DHT22;39789;53.216;5.624;2023-05-21T11:27:09;16.60;68.10
53876;DHT22;39789;53.216;5.624;2023-05-21T11:29:39;16.60;68.20
53876;DHT22;39789;53.216;5.624;2023-05-21T11:32:06;16.60;68.40
53876;DHT22;39789;53.216;5.624;2023-05-21T11:34:38;16.70;68.90
53876;DHT22;39789;53.216;5.624;2023-05-21T11:39:48;16.60;68.50
53876;DHT22;39789;53.216;5.624;2023-05-21T11:44:55;16.40;68.10
53876;DHT22;39789;53.216;5.624;2023-05-21T11:47:21;16.40;69.00
53876;DHT22;39789;53.216;5.624;2023-05-21T11:49:47;16.50;69.40
53876;DHT22;39789;53.216;5.624;2023-05-21T11:52:14;16.50;69.00
53876;DHT22;39789;53.216;5.624;2023-05-21T11:54:44;16.40;70.10
53876;DHT22;39789;53.216;5.624;2023-05-21T11:57:13;16.50;69.60
53876;DHT22;39789;53.216;5.624;2023-05-21T11:59:46;16.50;69.50
53876;DHT22;39789;53.216;5.624;2023-05-21T12:02:16;16.60;69.00
53876;DHT22;39789;53.216;5.624;2023-05-21T12:04:47;16.60;69.20
53876;DHT22;39789;53.216;5.624;2023-05-21T12:07:14;16.60;69.20
53876;DHT22;39789;53.216;5.624;2023-05-21T12:09:48;16.60;69.20
53876;DHT22;39789;53.216;5.624;2023-05-21T12:12:16;16.60;69.60
53876;DHT22;39789;53.216;5.624;2023-05-21T12:14:43;16.60;69.50
53876;DHT22;39789;53.216;5.624;2023-05-21T12:17:10;16.60;69.50
53876;DHT22;39789;53.216;5.624;2023-05-21T12:19:38;16.50;69.20
53876;DHT22;39789;53.216;5.624;2023-05-21T12:22:04;16.50;69.50
53876;DHT22;39789;53.216;5.624;2023-05-21T12:24:30;16.50;69.80
53876;DHT22;39789;53.216;5.624;2023-05-21T12:26:57;16.60;69.80
53876;DHT22;39789;53.216;5.624;2023-05-21T12:29:26;16.70;70.20
53876;DHT22;39789;53.216;5.624;2023-05-21T12:31:52;16.70;69.50
53876;DHT22;39789;53.216;5.624;2023-05-21T12:34:36;16.70;70.00
53876;DHT22;39789;53.216;5.624;2023-05-21T12:37:03;16.70;69.10
53876;DHT22;39789;53.216;5.624;2023-05-21T12:39:37;16.70;68.90
53876;DHT22;39789;53.216;5.624;2023-05-21T12:42:04;16.60;69.50
53876;DHT22;39789;53.216;5.624;2023-05-21T12:44:30;16.70;69.80
53876;DHT22;39789;53.216;5.624;2023-05-21T12:46:56;16.60;69.40
53876;DHT22;39789;53.216;5.624;2023-05-21T12:49:49;16.70;69.60
53876;DHT22;39789;53.216;5.624;2023-05-21T12:52:18;16.80;70.00
53876;DHT22;39789;53.216;5.624;2023-05-21T12:54:52;16.90;69.70
53876;DHT22;39789;53.216;5.624;2023-05-21T12:57:19;17.00;69.30
53876;DHT22;39789;53.216;5.624;2023-05-21T12:59:58;16.90;69.30
53876;DHT22;39789;53.216;5.624;2023-05-21T13:02:39;17.00;69.30
53876;DHT22;39789;53.216;5.624;2023-05-21T13:05:06;17.10;69.10
53876;DHT22;39789;53.216;5.624;2023-05-21T13:07:34;16.90;68.60
53876;DHT22;39789;53.216;5.624;2023-05-21T13:10:01;16.80;69.00
53876;DHT22;39789;53.216;5.624;2023-05-21T13:12:31;16.80;69.60
53876;DHT22;39789;53.216;5.624;2023-05-21T13:14:59;17.00;70.20
53876;DHT22;39789;53.216;5.624;2023-05-21T13:17:25;17.00;69.40
53876;DHT22;39789;53.216;5.624;2023-05-21T13:20:11;17.00;69.10
53876;DHT22;39789;53.216;5.624;2023-05-21T13:22:48;17.00;69.60
53876;DHT22;39789;53.216;5.624;2023-05-21T13:25:16;17.00;69.60
53876;DHT22;39789;53.216;5.624;2023-05-21T13:27:44;17.00;69.40
53876;DHT22;39789;53.216;5.624;2023-05-21T13:30:10;17.10;69.80
53876;DHT22;39789;53.216;5.624;2023-05-21T13:32:36;17.10;69.70
53876;DHT22;39789;53.216;5.624;2023-05-21T13:35:02;17.20;69.70
53876;DHT22;39789;53.216;5.624;2023-05-21T13:37:28;17.20;69.20
53876;DHT22;39789;53.216;5.624;2023-05-21T13:39:53;17.10;69.20
53876;DHT22;39789;53.216;5.624;2023-05-21T13:42:19;17.00;69.30
53876;DHT22;39789;53.216;5.624;2023-05-21T13:44:46;17.00;70.10
53876;DHT22;39789;53.216;5.624;2023-05-21T13:47:12;17.00;69.90
53876;DHT22;39789;53.216;5.624;2023-05-21T13:49:38;17.00;69.90
53876;DHT22;39789;53.216;5.624;2023-05-21T13:52:05;17.00;69.80
53876;DHT22;39789;53.216;5.624;2023-05-21T13:54:31;17.10;69.90
53876;DHT22;39789;53.216;5.624;2023-05-21T13:56:56;17.20;69.80
53876;DHT22;39789;53.216;5.624;2023-05-21T13:59:22;17.10;69.60
53876;DHT22;39789;53.216;5.624;2023-05-21T14:01:48;17.10;70.10
53876;DHT22;39789;53.216;5.624;2023-05-21T14:04:15;17.10;70.40
53876;DHT22;39789;53.216;5.624;2023-05-21T14:06:41;17.10;70.20
53876;DHT22;39789;53.216;5.624;2023-05-21T14:09:07;17.20;70.60
53876;DHT22;39789;53.216;5.624;2023-05-21T14:11:32;17.20;70.20
53876;DHT22;39789;53.216;5.624;2023-05-21T14:14:07;17.10;70.70
53876;DHT22;39789;53.216;5.624;2023-05-21T14:16:33;17.10;70.80
53876;DHT22;39789;53.216;5.624;2023-05-21T14:18:59;17.10;71.40
53876;DHT22;39789;53.216;5.624;2023-05-21T14:21:24;17.40;71.40
53876;DHT22;39789;53.216;5.624;2023-05-21T14:23:50;17.30;71.50
53876;DHT22;39789;53.216;5.624;2023-05-21T14:26:16;17.30;71.40
53876;DHT22;39789;53.216;5.624;2023-05-21T14:28:42;17.20;71.20
53876;DHT22;39789;53.216;5.624;2023-05-21T14:31:08;17.20;71.50
53876;DHT22;39789;53.216;5.624;2023-05-21T14:33:35;17.40;71.90
53876;DHT22;39789;53.216;5.624;2023-05-21T14:36:01;17.40;71.60
53876;DHT22;39789;53.216;5.624;2023-05-21T14:38:27;17.30;71.80
53876;DHT22;39789;53.216;5.624;2023-05-21T14:40:53;17.50;71.80
53876;DHT22;39789;53.216;5.624;2023-05-21T14:43:19;17.90;72.10
53876;DHT22;39789;53.216;5.624;2023-05-21T14:45:45;17.50;72.00
53876;DHT22;39789;53.216;5.624;2023-05-21T14:48:11;17.60;72.30
53876;DHT22;39789;53.216;5.624;2023-05-21T14:50:37;17.60;72.00
53876;DHT22;39789;53.216;5.624;2023-05-21T14:53:08;17.60;72.40
53876;DHT22;39789;53.216;5.624;2023-05-21T14:55:34;17.70;72.60
53876;DHT22;39789;53.216;5.624;2023-05-21T14:58:01;17.80;72.70
53876;DHT22;39789;53.216;5.624;2023-05-21T15:00:27;17.80;72.30
53876;DHT22;39789;53.216;5.624;2023-05-21T15:02:53;17.90;72.30
53876;DHT22;39789;53.216;5.624;2023-05-21T15:05:19;17.80;72.00
53876;DHT22;39789;53.216;5.624;2023-05-21T15:07:45;17.80;72.10
53876;DHT22;39789;53.216;5.624;2023-05-21T15:10:10;17.80;72.40
53876;DHT22;39789;53.216;5.624;2023-05-21T15:12:37;17.80;72.50
53876;DHT22;39789;53.216;5.624;2023-05-21T15:15:04;17.90;72.60
53876;DHT22;39789;53.216;5.624;2023-05-21T15:17:29;17.90;72.50
53876;DHT22;39789;53.216;5.624;2023-05-21T15:19:55;17.90;72.40
53876;DHT22;39789;53.216;5.624;2023-05-21T15:22:21;17.90;72.10
53876;DHT22;39789;53.216;5.624;2023-05-21T15:24:46;17.90;72.50
53876;DHT22;39789;53.216;5.624;2023-05-21T15:27:12;17.80;72.50
53876;DHT22;39789;53.216;5.624;2023-05-21T15:29:37;17.90;72.90
53876;DHT22;39789;53.216;5.624;2023-05-21T15:32:03;17.90;72.60
53876;DHT22;39789;53.216;5.624;2023-05-21T15:34:32;17.80;72.50
53876;DHT22;39789;53.216;5.624;2023-05-21T15:36:58;17.80;72.90
53876;DHT22;39789;53.216;5.624;2023-05-21T15:39:25;17.80;72.70
53876;DHT22;39789;53.216;5.624;2023-05-21T15:41:51;17.80;72.70
53876;DHT22;39789;53.216;5.624;2023-05-21T15:44:19;17.80;72.90
53876;DHT22;39789;53.216;5.624;2023-05-21T15:46:44;17.90;73.40
53876;DHT22;39789;53.216;5.624;2023-05-21T15:49:10;17.90;73.20
53876;DHT22;39789;53.216;5.624;2023-05-21T15:51:36;17.90;72.90